sensor_id;sensor_type;location;lat;lon;timestamp;temperature;humidity
48988;DHT22;34799;51.440;-2.534;2023-12-20T00:01:48;7.30;99.90
48988;DHT22;34799;51.440;-2.534;2023-12-20T00:04:24;8.80;99.90
48988;DHT22;34799;51.440;-2.534;2023-12-20T00:06:51;7.30;99.90
48988;DHT22;34799;51.440;-2.534;2023-12-20T00:09:19;9.20;99.90
48988;DHT22;34799;51.440;-2.534;2023-12-20T00:11:48;7.10;99.90
48988;DHT22;34799;51.440;-2.534;2023-12-20T00:14:16;7.10;99.90
48988;DHT22;34799;51.440;-2.534;2023-12-20T00:16:45;7.10;99.90
48988;DHT22;34799;51.440;-2.534;2023-12-20T00:19:14;7.10;99.90
48988;DHT22;34799;51.440;-2.534;2023-12-20T00:21:43;6.30;99.90
48988;DHT22;34799;51.440;-2.534;2023-12-20T00:24:13;7.10;99.90
48988;DHT22;34799;51.440;-2.534;2023-12-20T00:26:41;9.30;99.90
48988;DHT22;34799;51.440;-2.534;2023-12-20T00:29:10;7.00;99.90
48988;DHT22;34799;51.440;-2.534;2023-12-20T00:31:39;7.10;99.90
48988;DHT22;34799;51.440;-2.534;2023-12-20T00:34:08;7.30;99.90
48988;DHT22;34799;51.440;-2.534;2023-12-20T00:36:37;7.20;99.90
48988;DHT22;34799;51.440;-2.534;2023-12-20T00:39:06;7.50;99.90
48988;DHT22;34799;51.440;-2.534;2023-12-20T00:41:35;8.30;99.90
48988;DHT22;34799;51.440;-2.534;2023-12-20T00:44:04;7.30;99.90
48988;DHT22;34799;51.440;-2.534;2023-12-20T00:46:34;7.10;99.90
48988;DHT22;34799;51.440;-2.534;2023-12-20T00:49:02;7.10;99.90
48988;DHT22;34799;51.440;-2.534;2023-12-20T00:51:31;4.90;99.90
48988;DHT22;34799;51.440;-2.534;2023-12-20T00:54:00;4.90;99.90
48988;DHT22;34799;51.440;-2.534;2023-12-20T00:56:28;7.30;99.90
48988;DHT22;34799;51.440;-2.534;2023-12-20T00:58:56;7.10;99.90
48988;DHT22;34799;51.440;-2.534;2023-12-20T01:01:25;7.20;99.90
48988;DHT22;34799;51.440;-2.534;2023-12-20T01:03:53;7.00;99.90
48988;DHT22;34799;51.440;-2.534;2023-12-20T01:06:22;7.20;99.90
48988;DHT22;34799;51.440;-2.534;2023-12-20T01:08:50;7.20;99.90
48988;DHT22;34799;51.440;-2.534;2023-12-20T01:11:19;6.90;99.90
48988;DHT22;34799;51.440;-2.534;2023-12-20T01:13:47;8.30;99.90
48988;DHT22;34799;51.440;-2.534;2023-12-20T01:16:14;7.20;99.90
48988;DHT22;34799;51.440;-2.534;2023-12-20T01:18:41;6.50;99.90
48988;DHT22;34799;51.440;-2.534;2023-12-20T01:21:10;6.90;99.90
48988;DHT22;34799;51.440;-2.534;2023-12-20T01:23:38;7.00;99.90
48988;DHT22;34799;51.440;-2.534;2023-12-20T01:26:06;6.90;99.90
48988;DHT22;34799;51.440;-2.534;2023-12-20T01:28:35;6.80;99.90
48988;DHT22;34799;51.440;-2.534;2023-12-20T01:31:04;6.80;99.90
48988;DHT22;34799;51.440;-2.534;2023-12-20T01:33:33;7.00;99.90
48988;DHT22;34799;51.440;-2.534;2023-12-20T01:36:10;7.00;99.90
48988;DHT22;34799;51.440;-2.534;2023-12-20T01:38:39;7.00;99.90
48988;DHT22;34799;51.440;-2.534;2023-12-20T01:41:41;7.70;99.90
48988;DHT22;34799;51.440;-2.534;2023-12-20T01:44:09;7.00;99.90
48988;DHT22;34799;51.440;-2.534;2023-12-20T01:46:37;8.90;99.90
48988;DHT22;34799;51.440;-2.534;2023-12-20T01:49:06;7.00;99.90
48988;DHT22;34799;51.440;-2.534;2023-12-20T01:51:35;7.20;99.90
48988;DHT22;34799;51.440;-2.534;2023-12-20T01:54:04;7.00;99.90
48988;DHT22;34799;51.440;-2.534;2023-12-20T01:56:32;9.20;99.90
48988;DHT22;34799;51.440;-2.534;2023-12-20T01:59:02;7.00;99.90
48988;DHT22;34799;51.440;-2.534;2023-12-20T02:01:32;7.00;99.90
48988;DHT22;34799;51.440;-2.534;2023-12-20T02:04:00;7.20;99.90
48988;DHT22;34799;51.440;-2.534;2023-12-20T02:06:30;9.50;99.90
48988;DHT22;34799;51.440;-2.534;2023-12-20T02:09:00;8.40;99.90
48988;DHT22;34799;51.440;-2.534;2023-12-20T02:11:28;6.40;99.90
48988;DHT22;34799;51.440;-2.534;2023-12-20T02:13:57;7.40;99.90
48988;DHT22;34799;51.440;-2.534;2023-12-20T02:16:27;9.50;99.90
48988;DHT22;34799;51.440;-2.534;2023-12-20T02:18:55;6.90;99.90
48988;DHT22;34799;51.440;-2.534;2023-12-20T02:21:32;7.50;99.90
48988;DHT22;34799;51.440;-2.534;2023-12-20T02:24:03;7.30;99.90
48988;DHT22;34799;51.440;-2.534;2023-12-20T02:26:33;7.40;99.90
48988;DHT22;34799;51.440;-2.534;2023-12-20T02:29:01;7.60;99.90
48988;DHT22;34799;51.440;-2.534;2023-12-20T02:31:30;7.30;99.90
48988;DHT22;34799;51.440;-2.534;2023-12-20T02:33:58;9.60;99.90
48988;DHT22;34799;51.440;-2.534;2023-12-20T03:36:47;7.80;99.90
48988;DHT22;34799;51.440;-2.534;2023-12-20T03:39:17;8.40;99.90
48988;DHT22;34799;51.440;-2.534;2023-12-20T03:41:45;9.70;99.90
48988;DHT22;34799;51.440;-2.534;2023-12-20T03:44:12;8.80;99.90
48988;DHT22;34799;51.440;-2.534;2023-12-20T03:46:40;6.60;99.90
48988;DHT22;34799;51.440;-2.534;2023-12-20T03:49:07;9.90;99.90
48988;DHT22;34799;51.440;-2.534;2023-12-20T03:51:36;7.90;99.90
48988;DHT22;34799;51.440;-2.534;2023-12-20T03:54:03;7.90;99.90
48988;DHT22;34799;51.440;-2.534;2023-12-20T03:56:31;7.90;99.90
48988;DHT22;34799;51.440;-2.534;2023-12-20T03:58:59;7.80;99.90
48988;DHT22;34799;51.440;-2.534;2023-12-20T04:01:28;7.80;99.90
48988;DHT22;34799;51.440;-2.534;2023-12-20T04:03:56;8.30;99.90
48988;DHT22;34799;51.440;-2.534;2023-12-20T04:06:24;8.00;99.90
48988;DHT22;34799;51.440;-2.534;2023-12-20T04:08:51;6.20;99.90
48988;DHT22;34799;51.440;-2.534;2023-12-20T04:11:19;9.30;99.90
48988;DHT22;34799;51.440;-2.534;2023-12-20T04:13:47;7.90;99.90
48988;DHT22;34799;51.440;-2.534;2023-12-20T04:16:14;8.00;99.90
48988;DHT22;34799;51.440;-2.534;2023-12-20T04:18:43;9.40;99.90
48988;DHT22;34799;51.440;-2.534;2023-12-20T04:21:11;10.20;99.90
48988;DHT22;34799;51.440;-2.534;2023-12-20T04:23:39;10.40;99.90
48988;DHT22;34799;51.440;-2.534;2023-12-20T04:26:06;8.00;99.90
48988;DHT22;34799;51.440;-2.534;2023-12-20T04:28:34;8.10;99.90
48988;DHT22;34799;51.440;-2.534;2023-12-20T04:31:01;10.20;99.90
48988;DHT22;34799;51.440;-2.534;2023-12-20T04:33:29;8.10;99.90
48988;DHT22;34799;51.440;-2.534;2023-12-20T04:35:57;8.20;99.90
48988;DHT22;34799;51.440;-2.534;2023-12-20T04:38:25;8.20;99.90
48988;DHT22;34799;51.440;-2.534;2023-12-20T04:40:54;10.50;99.90
48988;DHT22;34799;51.440;-2.534;2023-12-20T04:43:23;8.20;99.90
48988;DHT22;34799;51.440;-2.534;2023-12-20T04:45:54;8.30;99.90
48988;DHT22;34799;51.440;-2.534;2023-12-20T04:48:22;8.40;99.90
48988;DHT22;34799;51.440;-2.534;2023-12-20T04:50:50;10.50;99.90
48988;DHT22;34799;51.440;-2.534;2023-12-20T04:53:19;7.60;99.90
48988;DHT22;34799;51.440;-2.534;2023-12-20T04:55:47;8.40;99.90
48988;DHT22;34799;51.440;-2.534;2023-12-20T04:58:15;8.50;99.90
48988;DHT22;34799;51.440;-2.534;2023-12-20T05:00:45;10.50;99.90
48988;DHT22;34799;51.440;-2.534;2023-12-20T05:03:13;8.60;99.90
48988;DHT22;34799;51.440;-2.534;2023-12-20T05:05:40;8.40;99.90
48988;DHT22;34799;51.440;-2.534;2023-12-20T05:08:07;8.50;99.90
48988;DHT22;34799;51.440;-2.534;2023-12-20T05:10:36;9.90;99.90
48988;DHT22;34799;51.440;-2.534;2023-12-20T05:13:04;7.10;99.90
48988;DHT22;34799;51.440;-2.534;2023-12-20T05:15:32;8.40;99.90
48988;DHT22;34799;51.440;-2.534;2023-12-20T05:18:00;9.00;99.90
48988;DHT22;34799;51.440;-2.534;2023-12-20T05:20:28;8.50;99.90
48988;DHT22;34799;51.440;-2.534;2023-12-20T05:22:57;8.60;99.90
48988;DHT22;34799;51.440;-2.534;2023-12-20T05:25:24;10.50;99.90
48988;DHT22;34799;51.440;-2.534;2023-12-20T05:27:51;8.70;99.90
48988;DHT22;34799;51.440;-2.534;2023-12-20T05:30:19;9.40;99.90
48988;DHT22;34799;51.440;-2.534;2023-12-20T05:32:50;10.30;99.90
48988;DHT22;34799;51.440;-2.534;2023-12-20T05:35:20;8.60;99.90
48988;DHT22;34799;51.440;-2.534;2023-12-20T05:37:49;8.70;99.90
48988;DHT22;34799;51.440;-2.534;2023-12-20T05:40:17;8.70;99.90
48988;DHT22;34799;51.440;-2.534;2023-12-20T05:42:53;8.70;99.90
48988;DHT22;34799;51.440;-2.534;2023-12-20T05:45:22;8.60;99.90
48988;DHT22;34799;51.440;-2.534;2023-12-20T05:47:51;8.60;99.90
48988;DHT22;34799;51.440;-2.534;2023-12-20T05:50:20;9.50;99.90
48988;DHT22;34799;51.440;-2.534;2023-12-20T05:52:49;8.70;99.90
48988;DHT22;34799;51.440;-2.534;2023-12-20T05:55:18;8.20;99.90
48988;DHT22;34799;51.440;-2.534;2023-12-20T05:57:46;6.50;99.90
48988;DHT22;34799;51.440;-2.534;2023-12-20T06:00:15;8.40;99.90
48988;DHT22;34799;51.440;-2.534;2023-12-20T06:02:43;8.40;99.90
48988;DHT22;34799;51.440;-2.534;2023-12-20T06:05:12;8.60;99.90
48988;DHT22;34799;51.440;-2.534;2023-12-20T06:07:40;8.50;99.90
48988;DHT22;34799;51.440;-2.534;2023-12-20T06:10:07;8.50;99.90
48988;DHT22;34799;51.440;-2.534;2023-12-20T06:12:35;8.40;99.90
48988;DHT22;34799;51.440;-2.534;2023-12-20T06:15:03;8.60;99.90
48988;DHT22;34799;51.440;-2.534;2023-12-20T06:17:31;7.20;99.90
48988;DHT22;34799;51.440;-2.534;2023-12-20T06:19:59;10.40;99.90
48988;DHT22;34799;51.440;-2.534;2023-12-20T06:22:26;8.50;99.90
48988;DHT22;34799;51.440;-2.534;2023-12-20T06:24:55;8.40;99.90
48988;DHT22;34799;51.440;-2.534;2023-12-20T06:27:23;8.50;99.90
48988;DHT22;34799;51.440;-2.534;2023-12-20T06:29:52;8.50;99.90
48988;DHT22;34799;51.440;-2.534;2023-12-20T06:32:19;11.10;99.90
48988;DHT22;34799;51.440;-2.534;2023-12-20T06:34:46;8.40;99.90
48988;DHT22;34799;51.440;-2.534;2023-12-20T06:37:14;11.10;99.90
48988;DHT22;34799;51.440;-2.534;2023-12-20T06:39:42;8.60;99.90
48988;DHT22;34799;51.440;-2.534;2023-12-20T06:42:11;10.70;99.90
48988;DHT22;34799;51.440;-2.534;2023-12-20T06:44:38;8.50;99.90
48988;DHT22;34799;51.440;-2.534;2023-12-20T06:47:09;8.30;99.90
48988;DHT22;34799;51.440;-2.534;2023-12-20T06:49:37;8.90;99.90
48988;DHT22;34799;51.440;-2.534;2023-12-20T06:52:05;8.50;99.90
48988;DHT22;34799;51.440;-2.534;2023-12-20T06:54:33;8.60;99.90
48988;DHT22;34799;51.440;-2.534;2023-12-20T06:57:02;8.60;99.90
48988;DHT22;34799;51.440;-2.534;2023-12-20T06:59:31;8.60;99.90
48988;DHT22;34799;51.440;-2.534;2023-12-20T07:02:00;11.10;99.90
48988;DHT22;34799;51.440;-2.534;2023-12-20T07:04:28;8.60;99.90
48988;DHT22;34799;51.440;-2.534;2023-12-20T07:06:55;9.30;99.90
48988;DHT22;34799;51.440;-2.534;2023-12-20T07:09:24;11.20;99.90
48988;DHT22;34799;51.440;-2.534;2023-12-20T07:11:52;10.30;99.90
48988;DHT22;34799;51.440;-2.534;2023-12-20T07:14:20;8.10;99.90
48988;DHT22;34799;51.440;-2.534;2023-12-20T07:16:48;10.30;99.90
48988;DHT22;34799;51.440;-2.534;2023-12-20T07:19:16;10.40;99.90
48988;DHT22;34799;51.440;-2.534;2023-12-20T07:21:44;8.80;99.90
48988;DHT22;34799;51.440;-2.534;2023-12-20T07:24:12;8.70;99.90
48988;DHT22;34799;51.440;-2.534;2023-12-20T07:26:40;9.70;99.90
48988;DHT22;34799;51.440;-2.534;2023-12-20T07:29:09;8.70;99.90
48988;DHT22;34799;51.440;-2.534;2023-12-20T07:31:37;9.00;99.90
48988;DHT22;34799;51.440;-2.534;2023-12-20T07:34:06;8.80;99.90
48988;DHT22;34799;51.440;-2.534;2023-12-20T07:36:36;9.00;99.90
48988;DHT22;34799;51.440;-2.534;2023-12-20T07:39:03;10.30;99.90
48988;DHT22;34799;51.440;-2.534;2023-12-20T07:41:30;8.60;99.90
48988;DHT22;34799;51.440;-2.534;2023-12-20T07:43:59;8.90;99.90
48988;DHT22;34799;51.440;-2.534;2023-12-20T07:46:26;8.90;99.90
48988;DHT22;34799;51.440;-2.534;2023-12-20T07:48:54;11.00;99.90
48988;DHT22;34799;51.440;-2.534;2023-12-20T07:51:23;9.00;99.90
48988;DHT22;34799;51.440;-2.534;2023-12-20T07:53:52;8.90;99.90
48988;DHT22;34799;51.440;-2.534;2023-12-20T07:56:24;9.00;99.90
48988;DHT22;34799;51.440;-2.534;2023-12-20T07:58:53;8.70;99.90
48988;DHT22;34799;51.440;-2.534;2023-12-20T08:01:29;10.00;99.90
48988;DHT22;34799;51.440;-2.534;2023-12-20T08:03:59;9.20;99.90
48988;DHT22;34799;51.440;-2.534;2023-12-20T08:06:28;9.60;99.90
48988;DHT22;34799;51.440;-2.534;2023-12-20T08:08:58;9.20;99.90
48988;DHT22;34799;51.440;-2.534;2023-12-20T08:11:28;9.10;99.90
48988;DHT22;34799;51.440;-2.534;2023-12-20T08:14:04;9.10;99.90
48988;DHT22;34799;51.440;-2.534;2023-12-20T08:16:32;9.30;99.90
48988;DHT22;34799;51.440;-2.534;2023-12-20T08:19:00;9.10;99.90
48988;DHT22;34799;51.440;-2.534;2023-12-20T08:21:28;9.10;99.90
48988;DHT22;34799;51.440;-2.534;2023-12-20T08:23:58;8.10;99.90
48988;DHT22;34799;51.440;-2.534;2023-12-20T08:26:29;8.90;99.90
48988;DHT22;34799;51.440;-2.534;2023-12-20T08:28:57;11.30;99.90
48988;DHT22;34799;51.440;-2.534;2023-12-20T08:31:26;11.40;99.90
48988;DHT22;34799;51.440;-2.534;2023-12-20T08:33:54;9.20;99.90
48988;DHT22;34799;51.440;-2.534;2023-12-20T08:36:21;9.00;99.90
48988;DHT22;34799;51.440;-2.534;2023-12-20T08:38:50;9.60;99.90
48988;DHT22;34799;51.440;-2.534;2023-12-20T08:41:22;9.20;99.90
48988;DHT22;34799;51.440;-2.534;2023-12-20T08:43:50;9.20;99.90
48988;DHT22;34799;51.440;-2.534;2023-12-20T08:46:18;9.00;99.90
48988;DHT22;34799;51.440;-2.534;2023-12-20T08:48:50;10.40;99.90
48988;DHT22;34799;51.440;-2.534;2023-12-20T08:51:18;8.90;99.90
48988;DHT22;34799;51.440;-2.534;2023-12-20T08:53:46;9.00;99.90
48988;DHT22;34799;51.440;-2.534;2023-12-20T08:56:21;10.70;99.90
48988;DHT22;34799;51.440;-2.534;2023-12-20T08:58:53;9.10;99.90
48988;DHT22;34799;51.440;-2.534;2023-12-20T09:01:29;9.00;99.90
48988;DHT22;34799;51.440;-2.534;2023-12-20T09:04:07;10.60;99.90
48988;DHT22;34799;51.440;-2.534;2023-12-20T09:06:34;9.10;99.90
48988;DHT22;34799;51.440;-2.534;2023-12-20T09:09:05;11.10;99.90
48988;DHT22;34799;51.440;-2.534;2023-12-20T09:11:36;9.20;99.90
48988;DHT22;34799;51.440;-2.534;2023-12-20T09:14:07;9.30;99.90
48988;DHT22;34799;51.440;-2.534;2023-12-20T09:16:36;9.60;99.90
48988;DHT22;34799;51.440;-2.534;2023-12-20T09:19:09;9.40;99.90
48988;DHT22;34799;51.440;-2.534;2023-12-20T09:21:36;9.10;99.90
48988;DHT22;34799;51.440;-2.534;2023-12-20T09:24:06;10.50;99.90
48988;DHT22;34799;51.440;-2.534;2023-12-20T09:26:36;9.50;99.90
48988;DHT22;34799;51.440;-2.534;2023-12-20T09:29:03;9.40;99.90
48988;DHT22;34799;51.440;-2.534;2023-12-20T09:31:36;8.50;99.90
48988;DHT22;34799;51.440;-2.534;2023-12-20T09:34:13;9.50;99.90
48988;DHT22;34799;51.440;-2.534;2023-12-20T09:36:40;9.40;99.90
48988;DHT22;34799;51.440;-2.534;2023-12-20T09:39:16;9.40;99.90
48988;DHT22;34799;51.440;-2.534;2023-12-20T09:42:05;9.40;99.90
48988;DHT22;34799;51.440;-2.534;2023-12-20T09:44:34;9.30;99.90
48988;DHT22;34799;51.440;-2.534;2023-12-20T09:47:05;9.70;99.90
48988;DHT22;34799;51.440;-2.534;2023-12-20T09:49:34;9.60;99.90
48988;DHT22;34799;51.440;-2.534;2023-12-20T09:52:05;9.20;99.90
48988;DHT22;34799;51.440;-2.534;2023-12-20T09:54:34;8.30;99.90
48988;DHT22;34799;51.440;-2.534;2023-12-20T09:57:13;10.30;99.90
48988;DHT22;34799;51.440;-2.534;2023-12-20T09:59:41;9.60;99.90
48988;DHT22;34799;51.440;-2.534;2023-12-20T10:02:16;8.60;99.90
48988;DHT22;34799;51.440;-2.534;2023-12-20T10:04:48;9.60;99.90
48988;DHT22;34799;51.440;-2.534;2023-12-20T10:07:17;9.60;99.90
48988;DHT22;34799;51.440;-2.534;2023-12-20T10:09:44;9.90;99.90
48988;DHT22;34799;51.440;-2.534;2023-12-20T10:12:15;8.00;99.90
48988;DHT22;34799;51.440;-2.534;2023-12-20T10:14:43;10.00;99.90
48988;DHT22;34799;51.440;-2.534;2023-12-20T10:17:10;9.10;99.90
48988;DHT22;34799;51.440;-2.534;2023-12-20T10:19:38;9.70;99.90
48988;DHT22;34799;51.440;-2.534;2023-12-20T10:22:08;9.80;99.90
48988;DHT22;34799;51.440;-2.534;2023-12-20T10:24:40;9.80;99.90
48988;DHT22;34799;51.440;-2.534;2023-12-20T10:27:08;10.70;99.90
48988;DHT22;34799;51.440;-2.534;2023-12-20T10:29:38;11.00;99.90
48988;DHT22;34799;51.440;-2.534;2023-12-20T10:32:27;12.00;99.90
48988;DHT22;34799;51.440;-2.534;2023-12-20T10:34:57;10.10;99.90
48988;DHT22;34799;51.440;-2.534;2023-12-20T10:37:37;10.10;99.90
48988;DHT22;34799;51.440;-2.534;2023-12-20T10:40:10;11.80;99.90
48988;DHT22;34799;51.440;-2.534;2023-12-20T10:42:50;12.00;99.90
48988;DHT22;34799;51.440;-2.534;2023-12-20T10:45:18;10.50;99.90
48988;DHT22;34799;51.440;-2.534;2023-12-20T10:47:46;10.10;99.90
48988;DHT22;34799;51.440;-2.534;2023-12-20T10:50:18;11.00;99.90
48988;DHT22;34799;51.440;-2.534;2023-12-20T10:52:47;10.20;99.90
48988;DHT22;34799;51.440;-2.534;2023-12-20T10:55:15;11.30;99.90
48988;DHT22;34799;51.440;-2.534;2023-12-20T10:57:51;10.50;99.90
48988;DHT22;34799;51.440;-2.534;2023-12-20T11:00:19;10.20;99.90
48988;DHT22;34799;51.440;-2.534;2023-12-20T11:02:49;10.30;99.90
48988;DHT22;34799;51.440;-2.534;2023-12-20T11:05:46;10.40;99.90
48988;DHT22;34799;51.440;-2.534;2023-12-20T11:09:03;10.40;99.90
48988;DHT22;34799;51.440;-2.534;2023-12-20T11:11:15;10.60;99.90
48988;DHT22;34799;51.440;-2.534;2023-12-20T11:14:22;10.50;99.90
48988;DHT22;34799;51.440;-2.534;2023-12-20T11:17:08;11.70;99.90
48988;DHT22;34799;51.440;-2.534;2023-12-20T11:20:04;10.50;99.90
48988;DHT22;34799;51.440;-2.534;2023-12-20T11:22:34;10.50;99.90
48988;DHT22;34799;51.440;-2.534;2023-12-20T11:25:13;10.70;99.90
48988;DHT22;34799;51.440;-2.534;2023-12-20T11:27:43;8.70;99.90
48988;DHT22;34799;51.440;-2.534;2023-12-20T11:30:15;10.40;99.90
48988;DHT22;34799;51.440;-2.534;2023-12-20T11:32:47;12.20;99.90
48988;DHT22;34799;51.440;-2.534;2023-12-20T11:35:18;10.40;99.90
48988;DHT22;34799;51.440;-2.534;2023-12-20T11:37:51;10.60;99.90
48988;DHT22;34799;51.440;-2.534;2023-12-20T11:40:18;10.50;99.90
48988;DHT22;34799;51.440;-2.534;2023-12-20T11:42:51;10.50;99.90
48988;DHT22;34799;51.440;-2.534;2023-12-20T11:45:23;10.50;99.90
48988;DHT22;34799;51.440;-2.534;2023-12-20T11:47:52;9.80;99.90
48988;DHT22;34799;51.440;-2.534;2023-12-20T11:50:24;11.00;99.90
48988;DHT22;34799;51.440;-2.534;2023-12-20T11:52:54;10.60;99.90
48988;DHT22;34799;51.440;-2.534;2023-12-20T11:55:24;10.60;99.90
48988;DHT22;34799;51.440;-2.534;2023-12-20T11:57:52;10.60;99.90
48988;DHT22;34799;51.440;-2.534;2023-12-20T12:00:20;10.60;99.90
48988;DHT22;34799;51.440;-2.534;2023-12-20T12:02:59;10.70;99.90
48988;DHT22;34799;51.440;-2.534;2023-12-20T12:05:36;10.60;99.90
48988;DHT22;34799;51.440;-2.534;2023-12-20T12:08:07;10.90;99.90
48988;DHT22;34799;51.440;-2.534;2023-12-20T12:10:35;10.70;99.90
48988;DHT22;34799;51.440;-2.534;2023-12-20T12:13:02;10.70;99.90
48988;DHT22;34799;51.440;-2.534;2023-12-20T12:15:40;10.70;99.90
48988;DHT22;34799;51.440;-2.534;2023-12-20T12:18:09;10.80;99.90
48988;DHT22;34799;51.440;-2.534;2023-12-20T12:20:38;11.10;99.90
48988;DHT22;34799;51.440;-2.534;2023-12-20T12:23:12;10.90;99.90
48988;DHT22;34799;51.440;-2.534;2023-12-20T12:25:45;10.80;99.90
48988;DHT22;34799;51.440;-2.534;2023-12-20T12:28:12;10.80;99.90
48988;DHT22;34799;51.440;-2.534;2023-12-20T12:30:40;10.80;99.90
48988;DHT22;34799;51.440;-2.534;2023-12-20T12:33:12;11.20;99.90
48988;DHT22;34799;51.440;-2.534;2023-12-20T12:35:40;11.20;99.90
48988;DHT22;34799;51.440;-2.534;2023-12-20T12:38:16;10.90;99.90
48988;DHT22;34799;51.440;-2.534;2023-12-20T12:40:49;11.00;99.90
48988;DHT22;34799;51.440;-2.534;2023-12-20T12:43:24;10.90;99.90
48988;DHT22;34799;51.440;-2.534;2023-12-20T12:46:05;10.90;99.90
48988;DHT22;34799;51.440;-2.534;2023-12-20T12:48:33;10.90;99.90
48988;DHT22;34799;51.440;-2.534;2023-12-20T12:51:01;11.10;99.90
48988;DHT22;34799;51.440;-2.534;2023-12-20T12:53:31;11.00;99.90
48988;DHT22;34799;51.440;-2.534;2023-12-20T12:55:59;10.90;99.90
48988;DHT22;34799;51.440;-2.534;2023-12-20T12:58:27;10.80;99.90
48988;DHT22;34799;51.440;-2.534;2023-12-20T13:00:56;10.90;99.90
48988;DHT22;34799;51.440;-2.534;2023-12-20T13:03:35;10.90;99.90
48988;DHT22;34799;51.440;-2.534;2023-12-20T13:06:04;10.90;99.90
48988;DHT22;34799;51.440;-2.534;2023-12-20T13:09:08;10.80;99.90
48988;DHT22;34799;51.440;-2.534;2023-12-20T13:11:45;10.80;99.90
48988;DHT22;34799;51.440;-2.534;2023-12-20T13:14:17;10.90;99.90
48988;DHT22;34799;51.440;-2.534;2023-12-20T13:16:52;10.70;99.90
48988;DHT22;34799;51.440;-2.534;2023-12-20T13:19:19;10.80;99.90
48988;DHT22;34799;51.440;-2.534;2023-12-20T13:21:48;11.70;99.90
48988;DHT22;34799;51.440;-2.534;2023-12-20T13:24:18;8.90;99.90
48988;DHT22;34799;51.440;-2.534;2023-12-20T13:26:47;8.90;99.90
48988;DHT22;34799;51.440;-2.534;2023-12-20T13:29:24;10.80;99.90
48988;DHT22;34799;51.440;-2.534;2023-12-20T13:31:57;10.90;99.90
48988;DHT22;34799;51.440;-2.534;2023-12-20T13:34:31;10.60;99.90
48988;DHT22;34799;51.440;-2.534;2023-12-20T13:37:01;9.80;99.90
48988;DHT22;34799;51.440;-2.534;2023-12-20T13:39:28;10.60;99.90
48988;DHT22;34799;51.440;-2.534;2023-12-20T13:41:57;11.20;99.90
48988;DHT22;34799;51.440;-2.534;2023-12-20T13:44:26;10.50;99.90
48988;DHT22;34799;51.440;-2.534;2023-12-20T13:46:54;10.50;99.90
48988;DHT22;34799;51.440;-2.534;2023-12-20T13:49:22;11.50;99.90
48988;DHT22;34799;51.440;-2.534;2023-12-20T13:51:54;10.40;99.90
48988;DHT22;34799;51.440;-2.534;2023-12-20T13:54:22;11.80;99.90
48988;DHT22;34799;51.440;-2.534;2023-12-20T13:56:50;10.40;99.90
48988;DHT22;34799;51.440;-2.534;2023-12-20T13:59:24;11.80;99.90
48988;DHT22;34799;51.440;-2.534;2023-12-20T14:01:53;10.60;99.90
48988;DHT22;34799;51.440;-2.534;2023-12-20T14:04:38;10.50;99.90
48988;DHT22;34799;51.440;-2.534;2023-12-20T14:07:10;9.60;99.90
48988;DHT22;34799;51.440;-2.534;2023-12-20T14:09:41;10.20;99.90
48988;DHT22;34799;51.440;-2.534;2023-12-20T14:12:17;11.60;99.90
48988;DHT22;34799;51.440;-2.534;2023-12-20T14:14:55;11.60;99.90
48988;DHT22;34799;51.440;-2.534;2023-12-20T14:18:00;11.40;99.90
48988;DHT22;34799;51.440;-2.534;2023-12-20T14:20:28;10.20;99.90
48988;DHT22;34799;51.440;-2.534;2023-12-20T14:22:57;10.20;99.90
48988;DHT22;34799;51.440;-2.534;2023-12-20T14:25:32;12.10;99.90
48988;DHT22;34799;51.440;-2.534;2023-12-20T14:28:02;10.30;99.90
48988;DHT22;34799;51.440;-2.534;2023-12-20T14:30:30;10.50;99.90
48988;DHT22;34799;51.440;-2.534;2023-12-20T14:32:59;8.00;99.90
48988;DHT22;34799;51.440;-2.534;2023-12-20T14:35:30;11.00;99.90
48988;DHT22;34799;51.440;-2.534;2023-12-20T14:37:58;10.50;99.90
48988;DHT22;34799;51.440;-2.534;2023-12-20T14:40:27;10.70;99.90
48988;DHT22;34799;51.440;-2.534;2023-12-20T14:42:55;10.40;99.90
48988;DHT22;34799;51.440;-2.534;2023-12-20T14:45:33;11.30;99.90
48988;DHT22;34799;51.440;-2.534;2023-12-20T14:48:00;10.40;99.90
48988;DHT22;34799;51.440;-2.534;2023-12-20T14:50:29;10.40;99.90
48988;DHT22;34799;51.440;-2.534;2023-12-20T14:52:57;8.40;99.90
48988;DHT22;34799;51.440;-2.534;2023-12-20T14:55:29;10.70;99.90
48988;DHT22;34799;51.440;-2.534;2023-12-20T14:57:58;10.30;99.90
48988;DHT22;34799;51.440;-2.534;2023-12-20T15:00:27;10.50;99.90
48988;DHT22;34799;51.440;-2.534;2023-12-20T15:02:58;10.30;99.90
48988;DHT22;34799;51.440;-2.534;2023-12-20T15:05:31;11.70;99.90
48988;DHT22;34799;51.440;-2.534;2023-12-20T15:07:59;10.20;99.90
48988;DHT22;34799;51.440;-2.534;2023-12-20T15:10:32;9.60;99.90
48988;DHT22;34799;51.440;-2.534;2023-12-20T15:13:00;10.40;99.90
48988;DHT22;34799;51.440;-2.534;2023-12-20T15:15:34;10.20;99.90
48988;DHT22;34799;51.440;-2.534;2023-12-20T15:18:02;10.50;99.90
48988;DHT22;34799;51.440;-2.534;2023-12-20T15:20:31;10.40;99.90
48988;DHT22;34799;51.440;-2.534;2023-12-20T15:23:01;10.40;99.90
48988;DHT22;34799;51.440;-2.534;2023-12-20T15:25:35;10.20;99.90
48988;DHT22;34799;51.440;-2.534;2023-12-20T15:28:09;10.20;99.90
48988;DHT22;34799;51.440;-2.534;2023-12-20T15:30:37;10.20;99.90
48988;DHT22;34799;51.440;-2.534;2023-12-20T15:33:14;10.40;99.90
48988;DHT22;34799;51.440;-2.534;2023-12-20T15:35:42;10.30;99.90
48988;DHT22;34799;51.440;-2.534;2023-12-20T15:38:12;11.30;99.90
48988;DHT22;34799;51.440;-2.534;2023-12-20T15:40:42;11.30;99.90
48988;DHT22;34799;51.440;-2.534;2023-12-20T15:43:12;10.50;99.90
48988;DHT22;34799;51.440;-2.534;2023-12-20T15:45:39;10.20;99.90
48988;DHT22;34799;51.440;-2.534;2023-12-20T15:48:07;11.90;99.90
48988;DHT22;34799;51.440;-2.534;2023-12-20T15:50:36;8.00;99.90
48988;DHT22;34799;51.440;-2.534;2023-12-20T15:53:07;10.30;99.90
48988;DHT22;34799;51.440;-2.534;2023-12-20T15:55:38;10.30;99.90
48988;DHT22;34799;51.440;-2.534;2023-12-20T15:58:05;10.10;99.90
48988;DHT22;34799;51.440;-2.534;2023-12-20T16:00:42;10.40;99.90
48988;DHT22;34799;51.440;-2.534;2023-12-20T16:03:09;11.00;99.90
48988;DHT22;34799;51.440;-2.534;2023-12-20T16:05:40;10.10;99.90
48988;DHT22;34799;51.440;-2.534;2023-12-20T16:08:08;8.90;99.90
48988;DHT22;34799;51.440;-2.534;2023-12-20T16:10:36;10.70;99.90
48988;DHT22;34799;51.440;-2.534;2023-12-20T16:13:21;10.10;99.90
48988;DHT22;34799;51.440;-2.534;2023-12-20T16:15:50;10.30;99.90
48988;DHT22;34799;51.440;-2.534;2023-12-20T16:18:18;11.60;99.90
48988;DHT22;34799;51.440;-2.534;2023-12-20T16:20:46;10.00;99.90
48988;DHT22;34799;51.440;-2.534;2023-12-20T16:23:14;11.20;99.90
48988;DHT22;34799;51.440;-2.534;2023-12-20T16:25:42;10.70;99.90
48988;DHT22;34799;51.440;-2.534;2023-12-20T16:28:10;10.50;99.90
48988;DHT22;34799;51.440;-2.534;2023-12-20T16:30:38;10.50;99.90
48988;DHT22;34799;51.440;-2.534;2023-12-20T16:33:12;10.30;99.90
48988;DHT22;34799;51.440;-2.534;2023-12-20T16:35:45;12.40;99.90
48988;DHT22;34799;51.440;-2.534;2023-12-20T16:38:13;10.20;99.90
48988;DHT22;34799;51.440;-2.534;2023-12-20T16:40:41;9.90;99.90
48988;DHT22;34799;51.440;-2.534;2023-12-20T16:43:11;10.20;99.90
48988;DHT22;34799;51.440;-2.534;2023-12-20T16:45:47;10.30;99.90